Time;durP1;ratioP1;P1;durP2;ratioP2;P2;SDS_P1;SDS_P2;PMS_P1;PMS_P2;Temp;Humidity;BMP_temperature;BMP_pressure;BME280_temperature;BME280_humidity;BME280_pressure;Samples;Min_cycle;Max_cycle;Signal;HPM_P1;HPM_P2
2022/07/18 00:01:58;;;;;;;1.25;1.10;;;17.50;63.40;;;17.41;44.54;97959.63;4981686;28;20108;-36
2022/07/18 00:04:24;;;;;;;1.83;1.02;;;17.40;64.50;;;17.34;44.85;97961.81;4979255;28;20065;-37
2022/07/18 00:06:51;;;;;;;1.48;0.90;;;17.40;65.10;;;17.32;45.03;97961.88;4988411;28;20114;-36
2022/07/18 00:09:17;;;;;;;2.42;1.10;;;17.30;65.10;;;17.25;45.22;97957.84;4988700;28;20105;-36
2022/07/18 00:11:44;;;;;;;1.30;1.08;;;17.30;65.40;;;17.23;44.75;97961.50;4984143;28;20810;-35
2022/07/18 00:14:11;;;;;;;1.00;0.90;;;17.20;64.90;;;17.24;44.67;97955.25;4982835;28;20658;-36
2022/07/18 00:16:37;;;;;;;1.42;0.80;;;17.20;64.50;;;17.24;44.27;97953.44;4984057;28;20052;-35
2022/07/18 00:19:04;;;;;;;1.30;0.90;;;17.20;64.40;;;17.12;44.22;97930.13;4986270;28;20162;-36
2022/07/18 00:21:29;;;;;;;1.48;0.93;;;17.30;64.20;;;17.25;44.76;97960.50;4982207;28;20136;-36
2022/07/18 00:23:55;;;;;;;2.22;1.02;;;17.30;65.00;;;17.26;43.84;97967.53;4989018;28;20034;-36
2022/07/18 00:26:21;;;;;;;1.33;1.00;;;17.30;63.90;;;17.24;43.66;97961.44;4989868;28;20564;-36
2022/07/18 00:28:47;;;;;;;1.60;1.00;;;17.30;63.50;;;17.24;43.33;97963.25;4986609;28;20165;-35
2022/07/18 00:31:12;;;;;;;1.98;1.15;;;17.30;63.00;;;17.18;43.25;97961.78;4982087;28;20395;-36
2022/07/18 00:33:38;;;;;;;2.00;0.80;;;17.20;62.80;;;17.17;42.91;97965.38;4980788;28;20030;-36
2022/07/18 00:36:04;;;;;;;2.80;0.70;;;17.20;62.60;;;17.14;42.47;97962.91;4988223;28;20038;-36
2022/07/18 00:38:30;;;;;;;1.23;0.80;;;17.20;62.00;;;17.11;41.89;97963.91;4990017;28;20029;-36
2022/07/18 00:40:56;;;;;;;1.05;0.80;;;17.10;61.10;;;17.10;41.64;97958.66;4964204;28;20411;-36
2022/07/18 00:43:22;;;;;;;2.30;0.90;;;17.10;60.80;;;17.06;41.28;97955.31;4989573;28;20048;-36
2022/07/18 00:45:49;;;;;;;1.05;0.70;;;17.10;60.50;;;17.08;41.12;97958.75;4983327;28;20069;-36
2022/07/18 00:48:15;;;;;;;1.02;0.70;;;17.10;60.10;;;17.08;41.07;97957.88;4988230;28;20026;-36
2022/07/18 00:50:43;;;;;;;0.80;0.70;;;17.10;60.10;;;16.89;41.41;97926.94;4983583;28;20077;-35
2022/07/18 00:53:12;;;;;;;1.08;0.70;;;17.10;60.50;;;17.01;41.54;97954.69;4969182;28;20127;-37
2022/07/18 00:55:41;;;;;;;0.93;0.60;;;17.10;60.80;;;17.01;41.56;97949.34;4981955;28;20101;-36
2022/07/18 00:58:10;;;;;;;0.88;0.77;;;17.10;60.70;;;17.03;41.44;97954.63;4986222;28;20215;-35
2022/07/18 01:03:21;;;;;;;4.40;0.98;;;17.10;61.10;;;17.00;42.41;97953.00;4986123;28;20130;-36
2022/07/18 01:05:47;;;;;;;1.27;0.82;;;17.10;61.80;;;16.98;42.36;97946.88;4978369;28;20034;-36
2022/07/18 01:08:13;;;;;;;1.35;0.80;;;17.00;61.70;;;16.94;43.43;97950.63;4961508;28;20457;-37
2022/07/18 01:10:39;;;;;;;1.60;0.90;;;17.00;63.00;;;16.87;43.47;97949.25;4987147;28;20068;-36
2022/07/18 01:13:05;;;;;;;0.93;0.70;;;16.90;63.20;;;16.81;43.70;97950.41;4980721;28;20034;-35
2022/07/18 01:15:30;;;;;;;1.10;0.82;;;16.90;63.60;;;16.74;43.80;97954.34;4980392;28;20049;-36
2022/07/18 01:17:56;;;;;;;1.23;0.80;;;16.80;64.80;;;16.70;43.84;97948.31;4982291;28;20033;-35
2022/07/18 01:20:26;;;;;;;2.30;0.88;;;16.80;63.80;;;16.64;43.36;97947.81;4981401;28;20034;-36
2022/07/18 01:22:52;;;;;;;1.05;0.70;;;16.70;63.40;;;16.69;43.59;97943.94;4977632;28;20185;-36
2022/07/18 01:25:18;;;;;;;2.25;0.88;;;16.70;63.10;;;16.73;43.21;97947.31;4983484;28;20042;-35
2022/07/18 01:27:44;;;;;;;2.60;0.90;;;16.80;63.00;;;16.73;43.68;97941.97;4984857;28;20574;-36
2022/07/18 01:30:09;;;;;;;1.52;1.05;;;16.80;63.50;;;16.70;44.65;97945.66;4978435;28;20081;-36
2022/07/18 01:32:35;;;;;;;1.60;0.95;;;16.80;64.60;;;16.68;45.64;97942.22;4986693;28;20125;-35
2022/07/18 01:35:01;;;;;;;2.10;1.23;;;16.70;66.00;;;16.66;46.72;97945.91;4974907;28;20041;-35
2022/07/18 01:37:27;;;;;;;1.45;1.10;;;16.70;67.50;;;16.58;47.67;97936.53;4979401;28;20038;-36
2022/07/18 01:39:52;;;;;;;1.58;1.15;;;16.70;68.70;;;16.57;47.56;97942.78;4981083;28;20045;-36
2022/07/18 01:42:18;;;;;;;1.40;1.05;;;16.60;68.70;;;16.53;47.69;97941.22;4980115;28;20034;-36
2022/07/18 01:44:45;;;;;;;2.90;1.40;;;16.60;68.80;;;16.50;48.85;97944.03;4968833;28;20026;-36
2022/07/18 01:47:11;;;;;;;2.38;1.20;;;16.50;69.80;;;16.43;49.18;97937.31;4977937;28;20030;-36
2022/07/18 01:49:38;;;;;;;2.30;1.40;;;16.50;70.50;;;16.37;50.37;97943.81;4987446;28;20146;-36
2022/07/18 01:52:05;;;;;;;1.40;1.10;;;16.40;71.80;;;16.19;50.29;97923.50;4995459;28;20070;-36
2022/07/18 01:54:33;;;;;;;2.13;1.15;;;16.40;71.90;;;16.25;51.28;97938.28;4992120;28;20038;-36
2022/07/18 01:57:01;;;;;;;6.60;1.38;;;16.30;72.70;;;16.21;51.91;97940.25;4992831;28;20128;-36
2022/07/18 01:59:27;;;;;;;1.30;1.08;;;16.30;73.20;;;16.16;52.47;97943.13;4989869;28;20530;-35
2022/07/18 02:01:53;;;;;;;1.40;1.13;;;16.20;73.80;;;16.11;52.62;97937.16;4983152;28;20045;-36
2022/07/18 02:04:19;;;;;;;2.20;1.35;;;16.20;73.90;;;16.06;52.57;97935.69;4984924;28;20502;-36
2022/07/18 02:06:45;;;;;;;2.63;1.40;;;16.20;73.90;;;16.03;52.43;97931.38;4986151;28;20033;-37
2022/07/18 02:09:11;;;;;;;1.70;1.13;;;16.10;73.60;;;16.06;52.31;97941.88;4981306;28;20026;-36
2022/07/18 02:11:38;;;;;;;2.00;1.30;;;16.10;73.60;;;16.09;52.56;97949.69;4975829;28;20033;-35
2022/07/18 02:14:05;;;;;;;3.10;1.40;;;16.20;73.50;;;16.06;53.44;97946.31;4987996;28;20236;-36
2022/07/18 02:16:31;;;;;;;1.52;1.20;;;16.10;74.40;;;16.03;53.34;97945.53;4982374;28;20041;-36
2022/07/18 02:18:57;;;;;;;2.83;1.60;;;16.10;74.30;;;16.00;53.51;97951.00;4982596;28;20492;-35
2022/07/18 02:21:23;;;;;;;2.28;1.25;;;16.10;74.40;;;15.98;53.50;97944.91;4985521;28;20045;-36
2022/07/18 02:23:50;;;;;;;2.28;1.40;;;16.00;74.40;;;15.95;53.84;97947.75;4982580;28;20025;-36
2022/07/18 02:26:17;;;;;;;2.17;1.33;;;16.00;74.60;;;15.91;54.50;97951.47;4959822;28;20034;-36
2022/07/18 02:28:43;;;;;;;4.55;1.27;;;16.00;75.10;;;15.84;55.68;97952.72;4985025;23;20446;-52
2022/07/18 02:31:09;;;;;;;2.75;1.45;;;15.90;74.90;;;15.78;55.11;97956.53;4981980;28;20030;-50
2022/07/18 02:33:35;;;;;;;3.83;1.40;;;15.80;75.50;;;15.75;54.95;97958.50;4981394;28;20037;-53
2022/07/18 02:36:01;;;;;;;1.88;1.23;;;15.80;75.30;;;15.71;55.55;97952.44;4988661;28;20042;-53
2022/07/18 02:38:26;;;;;;;2.40;1.20;;;15.80;75.90;;;15.64;56.06;97948.34;4989425;28;20044;-51
2022/07/18 02:40:52;;;;;;;2.63;1.10;;;15.80;76.20;;;15.59;55.66;97947.72;4993836;28;20526;-52
2022/07/18 02:43:18;;;;;;;3.33;1.42;;;15.70;75.90;;;15.57;56.39;97955.75;4989121;28;20112;-48
2022/07/18 02:45:44;;;;;;;4.43;1.38;;;15.60;76.50;;;15.54;56.50;97950.59;4982476;28;20367;-52
2022/07/18 02:48:10;;;;;;;3.03;1.48;;;15.60;76.60;;;15.53;58.08;97945.34;4989665;28;20069;-53
2022/07/18 02:50:35;;;;;;;2.92;1.52;;;15.60;77.90;;;15.46;59.01;97952.75;4990866;28;20113;-51
2022/07/18 02:53:01;;;;;;;1.80;1.30;;;15.60;78.60;;;15.42;60.46;97946.72;4986605;28;20418;-53
2022/07/18 02:55:27;;;;;;;5.13;1.48;;;15.50;79.60;;;15.39;60.17;97954.84;4980829;28;20041;-53
2022/07/18 02:57:52;;;;;;;2.33;1.40;;;15.50;79.40;;;15.35;59.29;97950.59;4987246;28;20117;-53
2022/07/18 03:00:18;;;;;;;2.83;1.33;;;15.50;78.90;;;15.35;59.82;97955.06;4992397;28;20625;-51
2022/07/18 03:02:45;;;;;;;2.55;1.58;;;15.40;79.20;;;15.31;59.93;97951.69;4988601;28;20054;-52
2022/07/18 03:05:12;;;;;;;3.60;1.70;;;15.40;79.20;;;15.29;62.19;97950.91;4981650;28;20037;-53
2022/07/18 03:07:38;;;;;;;1.55;1.30;;;15.40;80.90;;;15.25;62.32;97947.53;4992348;28;20036;-53
2022/07/18 03:10:05;;;;;;;1.77;1.42;;;15.30;81.00;;;15.23;62.15;97952.03;4988721;28;20397;-51
2022/07/18 03:12:32;;;;;;;2.03;1.38;;;15.30;80.80;;;15.20;63.05;97948.66;4992024;28;20041;-53
2022/07/18 03:14:59;;;;;;;2.58;1.20;;;15.30;81.50;;;15.15;62.42;97950.69;4972346;28;20037;-53
2022/07/18 03:17:25;;;;;;;4.05;1.70;;;15.20;81.20;;;15.15;62.69;97950.69;4996171;28;20038;-52
2022/07/18 03:19:50;;;;;;;1.77;1.40;;;15.30;81.30;;;15.14;63.03;97956.94;4996986;28;20029;-49
2022/07/18 03:22:16;;;;;;;3.35;1.20;;;15.20;81.50;;;15.11;64.45;97957.06;4995302;28;20482;-53
2022/07/18 03:24:42;;;;;;;2.42;1.40;;;15.20;82.60;;;15.07;65.57;97954.56;4991955;28;20026;-53
2022/07/18 03:27:07;;;;;;;2.05;1.48;;;15.20;83.40;;;15.03;66.04;97955.63;4996154;28;20418;-54
2022/07/18 03:29:33;;;;;;;2.75;1.60;;;15.10;83.50;;;15.02;66.88;97953.03;4977416;28;20026;-51
2022/07/18 03:31:59;;;;;;;2.28;1.65;;;15.10;83.80;;;14.98;66.94;97954.97;4989773;28;20608;-52
2022/07/18 03:34:25;;;;;;;2.90;1.40;;;15.10;84.50;;;14.96;67.05;97950.69;4992365;28;20037;-52
2022/07/18 03:36:50;;;;;;;2.22;1.45;;;15.00;84.50;;;14.94;68.06;97953.41;4990046;28;20038;-53
2022/07/18 03:39:16;;;;;;;2.75;1.45;;;15.00;85.30;;;14.91;68.34;97953.53;5002790;28;20454;-51
2022/07/18 03:41:42;;;;;;;6.72;1.70;;;15.00;85.50;;;14.88;68.51;97949.22;4999765;28;20102;-53
2022/07/18 03:44:08;;;;;;;2.58;1.60;;;15.00;85.70;;;14.87;68.65;97959.91;4998706;28;20057;-51
2022/07/18 03:46:34;;;;;;;2.92;1.50;;;14.90;85.70;;;14.84;68.89;97955.63;4989166;28;20945;-53
2022/07/18 03:49:00;;;;;;;2.28;1.48;;;15.00;86.00;;;14.83;69.76;97959.19;4980996;28;20117;-51
2022/07/18 03:51:26;;;;;;;6.57;1.60;;;15.00;86.70;;;14.83;70.39;97947.72;4984953;28;23710;-52
2022/07/18 03:53:52;;;;;;;4.53;1.70;;;14.90;87.10;;;14.83;70.74;97953.03;4987020;28;20044;-49
2022/07/18 03:56:18;;;;;;;3.78;1.60;;;14.90;87.30;;;14.83;70.84;97958.34;4973863;28;20064;-53
2022/07/18 03:58:44;;;;;;;2.40;1.50;;;14.90;87.50;;;14.72;71.30;97936.75;4997189;28;20486;-52
2022/07/18 04:01:09;;;;;;;2.05;1.50;;;15.00;87.90;;;14.83;70.73;97955.69;4987984;28;20073;-53
2022/07/18 04:03:36;;;;;;;2.83;1.50;;;14.90;88.40;;;14.83;70.77;97948.56;4988721;28;20117;-54
2022/07/18 04:06:01;;;;;;;3.60;1.60;;;15.00;87.60;;;14.84;71.08;97944.13;4990510;28;20084;-52
2022/07/18 04:08:27;;;;;;;3.95;1.50;;;14.90;87.90;;;14.83;71.41;97948.56;4995299;28;20085;-53
2022/07/18 04:10:53;;;;;;;3.15;1.50;;;14.90;88.20;;;14.84;71.29;97941.47;4991892;28;20045;-51
2022/07/18 04:13:19;;;;;;;3.97;1.73;;;14.90;88.10;;;14.87;72.08;97944.00;4991090;28;20037;-52
2022/07/18 04:15:46;;;;;;;2.30;1.58;;;15.00;88.80;;;14.79;72.87;97930.22;4992866;28;20057;-53
2022/07/18 04:18:11;;;;;;;2.65;1.58;;;15.00;89.40;;;14.95;73.02;97943.63;4990289;28;20030;-53
2022/07/18 04:20:41;;;;;;;6.90;1.90;;;15.10;89.60;;;15.02;72.69;97953.91;4988488;28;20056;-52
2022/07/18 04:23:09;;;;;;;4.13;1.90;;;15.10;89.30;;;15.09;72.28;97949.16;4988923;28;20120;-52
2022/07/18 04:25:40;;;;;;;4.13;1.70;;;15.20;89.30;;;15.18;71.65;97947.88;4997546;28;20052;-54
2022/07/18 04:28:08;;;;;;;2.72;1.90;;;15.30;88.80;;;15.26;72.01;97954.56;4995961;28;20030;-51
2022/07/18 04:30:35;;;;;;;2.60;1.80;;;15.40;89.10;;;15.35;71.55;97957.72;4990387;28;20486;-51
2022/07/18 04:33:04;;;;;;;3.38;1.85;;;15.40;88.70;;;15.42;71.44;97952.03;4983677;28;20214;-52
2022/07/18 04:35:30;;;;;;;3.10;1.70;;;15.50;88.70;;;15.47;71.50;97943.84;4992625;28;20168;-52
2022/07/18 04:37:56;;;;;;;3.97;1.73;;;15.60;88.80;;;15.54;71.62;97942.63;4994562;28;20034;-52
2022/07/18 04:40:22;;;;;;;2.20;1.60;;;15.70;88.90;;;15.61;71.25;97945.81;4987241;28;20045;-54
2022/07/18 04:42:48;;;;;;;3.47;1.80;;;15.70;88.70;;;15.68;70.71;97941.94;4993218;28;20041;-52
2022/07/18 04:45:15;;;;;;;2.67;1.48;;;15.80;88.40;;;15.76;69.56;97945.13;4992916;28;20026;-53
2022/07/18 04:47:41;;;;;;;3.53;1.85;;;15.90;87.90;;;15.87;70.30;97941.94;4998206;28;20388;-52
2022/07/18 04:50:08;;;;;;;4.00;2.00;;;15.90;88.20;;;15.95;69.05;97941.53;4993249;28;20041;-53
2022/07/18 04:52:42;;;;;;;3.25;1.80;;;16.00;87.50;;;16.03;69.41;97948.22;5000452;28;20042;-53
2022/07/18 04:55:11;;;;;;;2.55;1.70;;;16.10;87.60;;;16.11;68.90;97947.81;4984624;28;20034;-54
2022/07/18 04:57:37;;;;;;;3.95;1.98;;;16.20;87.50;;;16.21;67.04;97951.72;4998391;28;20042;-53
2022/07/18 05:00:13;;;;;;;3.22;1.70;;;16.30;86.20;;;16.31;66.20;97957.47;4994733;28;20459;-52
2022/07/18 05:02:41;;;;;;;3.28;1.90;;;16.40;85.60;;;16.45;65.38;97953.22;4996557;28;20042;-53
2022/07/18 05:05:09;;;;;;;2.47;1.67;;;16.50;85.10;;;16.53;65.50;97951.03;4999928;28;20524;-51
2022/07/18 05:07:35;;;;;;;4.07;1.70;;;16.60;85.00;;;16.63;66.19;97948.72;4999943;28;20053;-52
2022/07/18 05:10:03;;;;;;;4.38;1.70;;;16.70;85.50;;;16.72;66.23;97943.75;4999713;28;20037;-53
2022/07/18 05:12:29;;;;;;;2.92;1.75;;;16.80;85.50;;;16.73;65.07;97926.00;4999546;28;20052;-52
2022/07/18 05:14:55;;;;;;;4.13;2.03;;;16.90;84.80;;;16.93;63.49;97947.13;5000087;28;20494;-52
2022/07/18 05:17:21;;;;;;;5.00;2.10;;;17.00;83.80;;;16.96;63.27;97933.63;4993110;28;20080;-52
2022/07/18 05:19:46;;;;;;;2.97;1.60;;;17.10;83.30;;;17.22;62.47;97950.00;4985030;28;20616;-49
2022/07/18 05:22:12;;;;;;;3.28;1.70;;;17.30;82.90;;;17.42;61.09;97948.03;4999101;28;20038;-51
2022/07/18 05:24:38;;;;;;;3.03;1.75;;;17.50;82.20;;;17.68;59.21;97942.09;5003437;28;20033;-53
2022/07/18 05:27:04;;;;;;;4.28;1.73;;;17.70;81.00;;;18.02;57.42;97939.31;5001810;28;20469;-52
2022/07/18 05:29:29;;;;;;;3.92;1.80;;;17.90;79.90;;;18.40;56.05;97949.53;5000634;28;20108;-52
2022/07/18 05:31:56;;;;;;;4.90;1.88;;;18.20;79.20;;;18.96;54.19;97950.56;4998636;28;20518;-53
2022/07/18 05:34:21;;;;;;;2.88;1.75;;;18.50;78.20;;;19.50;52.21;97951.66;4998673;28;20071;-52
2022/07/18 05:36:47;;;;;;;2.05;1.52;;;18.90;76.70;;;19.87;50.87;97947.47;4994914;28;20029;-51
2022/07/18 05:39:13;;;;;;;7.32;1.60;;;19.30;75.40;;;20.01;49.29;97957.28;4993937;28;20390;-54
2022/07/18 05:41:39;;;;;;;4.00;1.63;;;19.50;73.70;;;19.95;49.52;97953.16;5004071;28;20117;-52
2022/07/18 05:44:04;;;;;;;4.00;1.90;;;19.60;73.20;;;19.82;48.72;97946.91;5004496;28;20052;-50
2022/07/18 05:46:30;;;;;;;5.50;1.70;;;19.60;72.10;;;19.89;49.02;97958.94;5004149;28;21450;-49
2022/07/18 05:48:56;;;;;;;3.00;1.80;;;19.70;72.20;;;20.03;48.81;97956.22;5007517;28;20021;-49
2022/07/18 05:51:22;;;;;;;3.30;1.90;;;19.70;72.50;;;20.24;48.74;97955.72;5006601;28;20164;-53
2022/07/18 05:53:48;;;;;;;5.03;1.80;;;19.80;72.50;;;20.36;48.07;97957.56;5007599;28;20037;-49
2022/07/18 05:56:14;;;;;;;4.82;2.00;;;20.00;71.90;;;20.40;47.73;97961.78;5003117;28;20037;-51
2022/07/18 05:58:40;;;;;;;3.10;1.80;;;20.10;71.10;;;20.43;47.30;97957.16;5005281;28;20101;-52
2022/07/18 06:01:06;;;;;;;2.53;1.98;;;20.10;70.60;;;20.40;46.42;97956.41;5004161;28;20321;-48
2022/07/18 06:03:32;;;;;;;2.30;1.50;;;20.20;69.70;;;20.41;46.60;97959.94;5002925;28;20026;-51
2022/07/18 06:05:57;;;;;;;3.50;1.73;;;20.20;69.40;;;20.45;46.27;97958.75;5006090;28;20045;-51
2022/07/18 06:08:23;;;;;;;4.43;1.70;;;20.30;69.20;;;20.46;46.63;97957.81;5007274;28;20062;-50
2022/07/18 06:10:49;;;;;;;3.30;1.92;;;20.30;68.90;;;20.56;45.85;97958.88;5002751;28;20061;-50
2022/07/18 06:13:14;;;;;;;5.43;1.92;;;20.40;68.60;;;20.63;45.87;97962.03;5006355;28;20490;-52
2022/07/18 06:15:40;;;;;;;2.70;1.60;;;20.50;68.40;;;20.72;45.36;97963.22;5007257;28;20026;-52
2022/07/18 06:18:06;;;;;;;3.08;1.77;;;20.60;68.10;;;20.76;46.02;97957.56;5005765;28;20091;-48
2022/07/18 06:20:31;;;;;;;2.97;1.90;;;20.60;68.40;;;20.76;46.24;97948.63;5003935;28;20301;-50
2022/07/18 06:22:57;;;;;;;2.33;1.60;;;20.70;68.60;;;21.00;45.86;97962.16;5004856;28;20038;-47
2022/07/18 06:25:23;;;;;;;2.90;1.80;;;20.90;68.60;;;21.12;45.74;97966.66;5002821;28;20030;-50
2022/07/18 06:27:48;;;;;;;3.38;1.90;;;21.00;68.50;;;21.27;45.93;97964.69;5003368;28;20503;-48
2022/07/18 06:30:14;;;;;;;3.30;1.92;;;21.20;68.20;;;21.43;45.57;97964.44;5005212;28;20045;-52
2022/07/18 06:32:40;;;;;;;5.10;2.00;;;21.30;67.70;;;21.57;45.40;97962.63;5002499;28;20530;-49
2022/07/18 06:35:07;;;;;;;5.00;2.25;;;21.50;67.50;;;21.66;45.28;97965.50;5005492;28;20126;-48
2022/07/18 06:37:33;;;;;;;3.33;2.30;;;21.60;67.40;;;21.69;45.20;97964.41;5005643;28;20121;-52
2022/07/18 06:39:59;;;;;;;4.72;2.13;;;21.70;67.30;;;21.75;45.00;97961.28;5002903;28;20034;-51
2022/07/18 06:42:24;;;;;;;4.82;2.03;;;21.70;67.20;;;21.82;44.96;97962.53;5006346;28;20092;-52
2022/07/18 06:44:50;;;;;;;3.42;2.00;;;21.70;67.00;;;21.91;45.10;97960.97;5003457;28;20022;-50
2022/07/18 06:47:16;;;;;;;3.55;2.28;;;21.90;67.10;;;22.00;44.97;97962.13;5003715;28;20557;-52
2022/07/18 06:49:41;;;;;;;3.97;2.42;;;22.00;66.80;;;22.07;44.73;97958.88;5005125;28;20025;-48
2022/07/18 06:52:11;;;;;;;3.83;2.15;;;22.00;66.60;;;22.14;44.66;97959.25;5002235;28;20632;-52
2022/07/18 06:54:38;;;;;;;6.57;2.47;;;22.10;66.30;;;22.24;44.29;97962.13;5000987;28;20511;-49
2022/07/18 06:57:07;;;;;;;3.13;2.28;;;22.20;66.20;;;22.32;44.52;97954.34;5003967;28;20037;-51
2022/07/18 06:59:33;;;;;;;2.35;1.75;;;22.30;66.10;;;22.49;44.06;97958.47;5007555;28;20147;-49
2022/07/18 07:01:59;;;;;;;4.05;2.08;;;22.40;66.10;;;22.60;43.90;97950.41;5000707;28;20061;-51
2022/07/18 07:04:25;;;;;;;2.70;1.70;;;22.60;65.60;;;22.77;43.27;97953.63;4989547;28;20027;-51
2022/07/18 07:06:51;;;;;;;2.63;1.90;;;22.70;64.80;;;22.86;42.66;97953.78;5002734;28;20037;-51
2022/07/18 07:09:16;;;;;;;8.95;2.50;;;22.80;64.50;;;22.96;41.79;97953.03;5005897;28;20483;-51
2022/07/18 07:11:42;;;;;;;2.80;1.95;;;22.90;63.70;;;23.04;41.38;97954.19;5007366;28;20092;-48
2022/07/18 07:14:08;;;;;;;7.72;2.03;;;23.00;62.80;;;23.16;41.50;97954.19;5006549;28;20391;-49
2022/07/18 07:16:33;;;;;;;3.47;2.22;;;23.10;62.50;;;23.23;41.47;97948.19;5000842;28;20038;-51
2022/07/18 07:18:59;;;;;;;3.13;2.22;;;23.20;62.10;;;23.33;41.57;97947.44;5001220;28;20076;-48
2022/07/18 07:21:25;;;;;;;3.00;2.10;;;23.30;61.90;;;23.42;41.19;97942.19;5005790;28;20045;-49
2022/07/18 07:23:50;;;;;;;3.97;2.53;;;23.30;61.70;;;23.47;40.28;97949.03;5001675;28;20029;-50
2022/07/18 07:26:16;;;;;;;3.42;2.28;;;23.40;60.30;;;23.56;40.49;97950.97;5004789;28;20045;-51
2022/07/18 07:28:42;;;;;;;4.55;2.58;;;23.40;60.70;;;23.66;39.85;97949.25;5004636;28;20044;-52
2022/07/18 07:31:07;;;;;;;3.75;2.45;;;23.50;60.70;;;23.70;39.31;97950.69;5002656;28;20041;-51
2022/07/18 07:33:33;;;;;;;6.07;2.30;;;23.60;59.00;;;23.79;39.46;97949.94;5004073;28;20088;-50
2022/07/18 07:36:00;;;;;;;2.88;2.13;;;23.70;59.50;;;23.93;39.44;97950.69;5002989;28;20088;-51
2022/07/18 07:38:28;;;;;;;3.72;2.25;;;23.80;59.50;;;24.02;38.90;97948.06;5000036;28;20033;-49
2022/07/18 07:40:55;;;;;;;2.67;1.95;;;23.90;58.90;;;24.17;38.88;97953.16;5002406;28;20038;-51
2022/07/18 07:43:21;;;;;;;3.95;2.15;;;24.00;59.10;;;24.30;37.91;97952.97;5004903;28;20040;-49
2022/07/18 07:45:50;;;;;;;4.75;2.50;;;24.10;57.90;;;24.39;36.85;97952.22;4996426;28;20038;-50
2022/07/18 07:48:16;;;;;;;4.40;2.28;;;24.20;57.20;;;24.47;36.82;97955.09;5004496;28;20085;-52
2022/07/18 07:50:42;;;;;;;6.38;2.30;;;24.30;56.60;;;24.64;36.26;97951.00;5001384;28;20128;-52
2022/07/18 07:53:10;;;;;;;3.72;2.30;;;24.50;56.60;;;24.72;35.85;97945.78;5003009;28;20062;-53
2022/07/18 07:55:35;;;;;;;5.95;2.25;;;24.60;55.70;;;24.87;35.93;97934.66;5003400;28;20057;-51
2022/07/18 07:58:03;;;;;;;5.18;2.25;;;24.70;55.60;;;24.97;37.69;97938.28;5005299;28;20480;-51
2022/07/18 08:00:29;;;;;;;7.43;2.38;;;24.80;57.00;;;25.14;36.38;97939.47;5002614;28;20064;-50
2022/07/18 08:03:06;;;;;;;10.15;2.10;;;25.00;56.20;;;25.25;35.80;97942.13;5002766;28;20073;-53
2022/07/18 08:05:37;;;;;;;1.65;1.55;;;25.10;55.00;;;25.38;35.69;97938.34;5003887;28;20026;-48
2022/07/18 08:08:03;;;;;;;3.28;2.22;;;25.20;55.30;;;25.48;34.86;97926.59;5002907;28;20025;-51
2022/07/18 08:10:29;;;;;;;3.80;2.10;;;25.30;54.30;;;25.58;34.76;97923.91;5001982;28;20118;-51
2022/07/18 08:12:55;;;;;;;3.05;1.70;;;25.40;54.00;;;25.65;34.45;97926.91;5001092;28;20367;-51
2022/07/18 08:15:21;;;;;;;3.65;1.92;;;25.50;54.00;;;25.71;34.69;97924.47;5002067;28;20049;-52
2022/07/18 08:17:47;;;;;;;6.28;2.40;;;25.60;54.50;;;25.74;33.31;97936.03;5003926;28;20030;-52
2022/07/18 08:20:13;;;;;;;4.95;1.92;;;25.60;52.80;;;25.79;34.07;97933.72;5003204;28;20109;-52
2022/07/18 08:23:00;;;;;;;3.15;1.98;;;25.60;53.70;;;25.86;34.21;97933.06;5001472;28;20080;-49
2022/07/18 08:25:29;;;;;;;8.88;1.98;;;25.70;53.40;;;25.92;32.91;97937.88;5004504;28;20277;-51
2022/07/18 08:27:55;;;;;;;3.17;1.90;;;25.80;52.90;;;25.93;34.07;97933.34;5001032;28;20057;-53
2022/07/18 08:30:22;;;;;;;4.15;2.05;;;25.80;52.20;;;26.02;33.56;97926.25;5000815;28;20567;-52
2022/07/18 08:32:48;;;;;;;4.43;2.00;;;25.80;52.80;;;26.10;34.68;97924.56;5002239;28;20408;-51
2022/07/18 08:35:14;;;;;;;3.90;2.40;;;26.00;54.00;;;26.17;34.54;97929.41;5002093;28;20038;-48
2022/07/18 08:37:40;;;;;;;6.00;1.98;;;26.00;54.00;;;26.19;34.22;97927.41;5001851;28;20559;-51
2022/07/18 08:40:07;;;;;;;3.75;2.38;;;26.00;53.30;;;26.23;35.02;97921.56;5004457;28;20038;-52
2022/07/18 08:42:34;;;;;;;4.32;2.20;;;26.10;54.40;;;26.36;34.22;97934.81;4990113;28;20034;-50
2022/07/18 08:45:00;;;;;;;3.10;2.00;;;26.20;53.80;;;26.35;34.66;97933.09;5002457;28;20133;-51
2022/07/18 08:47:31;;;;;;;3.33;1.83;;;26.20;53.60;;;26.41;33.83;97927.09;5002228;28;20137;-49
2022/07/18 08:49:59;;;;;;;5.83;2.23;;;26.30;53.30;;;26.56;33.59;97932.94;4998521;28;20038;-54
2022/07/18 08:52:26;;;;;;;2.70;1.80;;;26.30;53.00;;;26.61;33.37;97933.41;5004482;28;20554;-51
2022/07/18 08:54:52;;;;;;;3.88;2.10;;;26.40;52.70;;;26.60;32.67;97925.41;5003860;28;20034;-53
2022/07/18 08:57:18;;;;;;;2.53;1.88;;;26.50;51.60;;;26.63;32.84;97933.22;4987575;28;20028;-53
2022/07/18 08:59:44;;;;;;;7.60;2.22;;;26.40;51.90;;;26.59;32.19;97937.19;5007534;28;20087;-51
2022/07/18 09:02:10;;;;;;;3.13;1.90;;;26.50;51.70;;;26.60;32.40;97937.06;5017242;22;20082;-41
2022/07/18 09:04:42;;;;;;;2.95;2.20;;;26.50;51.50;;;26.65;31.99;97942.09;5001283;28;20034;-41
2022/07/18 09:07:10;;;;;;;3.78;2.03;;;26.50;51.20;;;26.60;32.13;97939.75;5004196;28;20048;-40
2022/07/18 09:09:37;;;;;;;2.10;1.90;;;26.50;50.50;;;26.66;32.33;97941.06;5007367;28;20056;-42
2022/07/18 09:12:09;;;;;;;6.47;2.15;;;26.50;51.10;;;26.74;32.12;97937.63;5011012;28;20404;-40
2022/07/18 09:14:44;;;;;;;2.25;1.85;;;26.60;51.10;;;26.90;30.88;97945.13;5011152;28;20233;-40
2022/07/18 09:17:21;;;;;;;6.20;2.10;;;26.70;49.70;;;26.93;31.67;97947.56;5003668;28;20037;-40
2022/07/18 09:20:11;;;;;;;5.18;2.50;;;26.70;50.80;;;26.92;31.41;97943.13;5004457;28;20117;-40
2022/07/18 09:22:40;;;;;;;3.90;2.42;;;26.80;50.20;;;27.07;30.61;97946.25;4997620;28;20096;-39
2022/07/18 09:25:09;;;;;;;3.45;1.75;;;26.80;49.10;;;27.23;29.79;97941.06;5007993;28;20472;-40
2022/07/18 09:27:45;;;;;;;2.78;1.80;;;27.10;48.40;;;27.40;28.82;97944.84;4999495;28;20041;-41
2022/07/18 09:30:32;;;;;;;3.13;2.00;;;27.20;47.20;;;27.44;29.32;97946.28;5004669;28;20033;-39
2022/07/18 09:33:03;;;;;;;7.68;2.17;;;27.30;47.20;;;27.44;28.91;97946.28;5005504;28;20030;-39
2022/07/18 09:35:33;;;;;;;3.90;2.10;;;27.30;46.50;;;27.56;30.03;97936.06;5003759;28;20035;-39
2022/07/18 09:38:05;;;;;;;3.45;1.80;;;27.40;48.20;;;27.55;30.13;97935.22;5012524;28;20103;-39
2022/07/18 09:40:43;;;;;;;2.08;1.88;;;27.40;48.50;;;27.66;30.95;97931.47;5003417;28;20042;-39
2022/07/18 09:43:12;;;;;;;2.85;1.90;;;27.50;49.50;;;27.72;30.68;97935.41;5004669;28;20409;-39
2022/07/18 09:45:53;;;;;;;4.75;2.10;;;27.50;49.00;;;27.69;29.79;97942.00;5011210;28;20045;-40
2022/07/18 09:48:21;;;;;;;3.17;2.20;;;27.50;48.40;;;27.73;29.89;97929.00;5003617;28;20025;-40
2022/07/18 09:50:56;;;;;;;3.03;2.30;;;27.60;47.90;;;27.69;29.70;97927.56;5005618;28;20181;-40
2022/07/18 09:53:27;;;;;;;2.38;2.03;;;27.50;47.40;;;27.72;29.56;97927.28;5011332;28;20060;-39
2022/07/18 09:55:55;;;;;;;3.90;2.10;;;27.60;47.90;;;27.74;29.14;97926.13;4985277;28;20029;-40
2022/07/18 09:58:28;;;;;;;2.30;1.88;;;27.60;46.60;;;27.76;28.67;97924.13;5009809;28;20037;-39
2022/07/18 10:00:58;;;;;;;3.95;1.88;;;27.60;47.00;;;27.82;28.56;97930.78;5008530;28;20045;-40
2022/07/18 10:03:24;;;;;;;2.47;2.28;;;27.70;45.90;;;27.95;27.66;97920.44;4997686;28;20041;-41
2022/07/18 10:05:52;;;;;;;7.55;1.95;;;27.70;45.60;;;27.92;27.32;97923.47;5003767;28;20022;-40
2022/07/18 10:08:22;;;;;;;2.60;1.95;;;27.80;44.90;;;27.98;27.54;97914.72;5004502;28;20018;-40
2022/07/18 10:10:50;;;;;;;2.40;1.75;;;27.80;44.70;;;28.09;28.18;97920.94;5007123;28;20038;-41
2022/07/18 10:13:17;;;;;;;2.15;1.95;;;27.90;45.80;;;28.25;27.92;97917.53;5007987;28;20030;-40
2022/07/18 10:15:46;;;;;;;3.95;1.58;;;28.00;45.30;;;28.36;27.69;97918.13;5001669;28;20080;-41
2022/07/18 10:18:15;;;;;;;3.08;1.90;;;28.20;45.20;;;28.41;26.56;97916.78;5000454;28;20117;-40
2022/07/18 10:21:09;;;;;;;4.30;1.85;;;28.20;44.10;;;28.44;26.68;97921.91;5003968;28;20034;-40
2022/07/18 10:23:41;;;;;;;3.67;2.03;;;28.30;43.50;;;28.43;26.44;97912.91;4999993;28;20026;-40